Time;durP1;ratioP1;P1;durP2;ratioP2;P2;SDS_P1;SDS_P2;PMS_P1;PMS_P2;Temp;Humidity;BMP_temperature;BMP_pressure;BME280_temperature;BME280_humidity;BME280_pressure;Samples;Min_cycle;Max_cycle;Signal;HPM_P1;HPM_P2
2022/05/26 00:01:26;;;;;;;;;;;;;;;15.91;46.21;98320.63;5158066;27;19923;-61
2022/05/26 00:03:55;;;;;;;;;;;;;;;15.91;45.60;98319.81;5160400;27;19918;-61
2022/05/26 00:06:24;;;;;;;;;;;;;;;15.86;45.65;98312.59;5153966;27;19923;-59
2022/05/26 00:08:54;;;;;;;;;;;;;;;15.85;45.97;98312.94;5160342;27;19918;-59
2022/05/26 00:11:25;;;;;;;;;;;;;;;15.85;46.46;98323.91;5159882;27;19920;-60
2022/05/26 00:14:03;;;;;;;;;;;;;;;15.92;46.16;98319.47;5159884;27;19930;-60
2022/05/26 00:16:30;;;;;;;;;;;;;;;15.81;45.73;98321.03;5158472;27;19919;-60
2022/05/26 00:18:58;;;;;;;;;;;;;;;15.77;46.23;98320.13;5159446;27;19958;-60
2022/05/26 00:21:26;;;;;;;;;;;;;;;15.93;47.01;98323.03;5153850;27;19925;-60
2022/05/26 00:23:56;;;;;;;;;;;;;;;15.91;46.62;98326.09;5123731;27;20002;-60
2022/05/26 00:26:24;;;;;;;;;;;;;;;15.87;46.61;98321.63;5146511;27;20032;-60
2022/05/26 00:28:52;;;;;;;;;;;;;;;15.82;46.56;98324.56;5124310;27;20336;-60
2022/05/26 00:31:30;;;;;;;;;;;;;;;15.71;46.20;98322.25;5132396;27;20320;-60
2022/05/26 00:33:58;;;;;;;;;;;;;;;15.71;47.05;98327.75;5149015;27;19923;-60
2022/05/26 00:36:38;;;;;;;;;;;;;;;15.79;46.74;98328.00;5159169;27;20014;-59
2022/05/26 00:39:09;;;;;;;;;;;;;;;15.77;46.99;98324.78;5154343;27;19968;-62
2022/05/26 00:41:38;;;;;;;;;;;;;;;15.68;47.41;98331.13;5157531;27;20373;-62
2022/05/26 00:44:06;;;;;;;;;;;;;;;15.78;46.87;98326.41;5167959;27;19926;-62
2022/05/26 00:46:40;;;;;;;;;;;;;;;15.66;47.14;98329.88;5161931;27;19967;-63
2022/05/26 00:49:10;;;;;;;;;;;;;;;15.65;46.61;98326.31;5133160;27;19919;-61
2022/05/26 00:51:38;;;;;;;;;;;;;;;15.63;47.23;98325.84;5154930;27;20257;-62
2022/05/26 00:54:07;;;;;;;;;;;;;;;15.57;46.81;98321.69;5148964;27;19930;-61
2022/05/26 00:56:38;;;;;;;;;;;;;;;15.59;46.67;98322.13;5142946;27;19984;-63
2022/05/26 00:59:08;;;;;;;;;;;;;;;15.55;46.81;98318.47;5150257;27;20246;-61
2022/05/26 01:01:36;;;;;;;;;;;;;;;15.53;47.71;98326.22;5158305;27;20114;-62
2022/05/26 01:04:07;;;;;;;;;;;;;;;15.43;47.51;98327.41;5154520;27;21421;-62
2022/05/26 01:06:36;;;;;;;;;;;;;;;15.41;47.94;98318.75;5152120;27;20370;-59
2022/05/26 01:09:05;;;;;;;;;;;;;;;15.44;47.56;98317.25;5162739;27;20338;-58
2022/05/26 01:11:34;;;;;;;;;;;;;;;15.48;47.64;98320.94;5140093;27;20015;-60
2022/05/26 01:14:05;;;;;;;;;;;;;;;15.56;47.57;98320.09;5159633;27;19918;-60
2022/05/26 01:16:35;;;;;;;;;;;;;;;15.55;47.81;98326.69;5146793;27;19919;-60
2022/05/26 01:19:05;;;;;;;;;;;;;;;15.46;47.99;98317.75;5143649;27;20015;-60
2022/05/26 01:21:34;;;;;;;;;;;;;;;15.44;47.04;98326.28;5143734;27;20276;-60
2022/05/26 01:24:18;;;;;;;;;;;;;;;15.45;47.64;98324.38;5137006;27;19923;-61
2022/05/26 01:26:52;;;;;;;;;;;;;;;15.59;49.18;98319.41;5149718;27;19999;-60
2022/05/26 01:29:48;;;;;;;;;;;;;;;15.65;48.77;98323.56;5157901;27;19922;-60
2022/05/26 01:32:19;;;;;;;;;;;;;;;15.53;47.52;98323.47;5074017;28;19947;-62
2022/05/26 01:34:49;;;;;;;;;;;;;;;15.49;47.75;98319.00;5071336;28;19920;-60
2022/05/26 01:37:20;;;;;;;;;;;;;;;15.55;47.93;98320.41;5153910;27;19919;-60
2022/05/26 01:39:55;;;;;;;;;;;;;;;15.60;47.00;98318.25;5152740;27;19961;-60
2022/05/26 01:42:23;;;;;;;;;;;;;;;15.59;47.75;98315.88;5149570;27;19926;-59
2022/05/26 01:44:58;;;;;;;;;;;;;;;15.55;46.88;98312.19;5145284;27;19980;-60
2022/05/26 01:47:38;;;;;;;;;;;;;;;15.54;47.02;98318.81;5161344;27;20264;-60
2022/05/26 01:50:07;;;;;;;;;;;;;;;15.55;47.70;98317.66;5151829;27;19925;-60
2022/05/26 01:52:37;;;;;;;;;;;;;;;15.60;47.99;98318.25;5162837;27;20031;-60
2022/05/26 01:55:06;;;;;;;;;;;;;;;15.68;47.00;98317.44;5165559;27;20231;-59
2022/05/26 01:57:35;;;;;;;;;;;;;;;15.69;47.00;98318.22;5159769;27;19919;-59
2022/05/26 02:00:05;;;;;;;;;;;;;;;15.66;46.90;98314.25;5158490;27;19983;-62
2022/05/26 02:02:43;;;;;;;;;;;;;;;15.58;47.38;98315.06;5124542;27;20281;-61
2022/05/26 02:05:36;;;;;;;;;;;;;;;15.54;47.92;98311.38;5152600;27;19958;-61
2022/05/26 02:08:10;;;;;;;;;;;;;;;15.53;47.25;98309.78;5153587;27;19978;-60
2022/05/26 02:10:39;;;;;;;;;;;;;;;15.51;47.35;98309.34;5150917;27;20366;-61
2022/05/26 02:13:10;;;;;;;;;;;;;;;15.71;46.73;98311.31;5159986;27;19919;-60
2022/05/26 02:15:51;;;;;;;;;;;;;;;15.58;47.22;98315.06;5133254;27;19926;-61
2022/05/26 02:18:23;;;;;;;;;;;;;;;15.54;47.14;98313.31;5158090;27;20358;-61
2022/05/26 02:20:54;;;;;;;;;;;;;;;15.67;46.94;98310.34;5158053;27;20437;-61
2022/05/26 02:23:26;;;;;;;;;;;;;;;15.78;47.05;98321.72;5155630;27;19919;-60
2022/05/26 02:25:54;;;;;;;;;;;;;;;15.74;46.96;98320.78;5152559;27;19919;-60
2022/05/26 02:28:22;;;;;;;;;;;;;;;15.48;47.59;98317.41;5151026;27;20022;-60
2022/05/26 02:30:50;;;;;;;;;;;;;;;15.45;47.89;98324.38;5152218;27;20025;-60
2022/05/26 02:33:18;;;;;;;;;;;;;;;15.43;47.97;98327.41;5157230;27;19923;-60
2022/05/26 02:36:13;;;;;;;;;;;;;;;15.46;47.78;98315.00;5139473;27;19998;-61
2022/05/26 02:38:43;;;;;;;;;;;;;;;15.46;47.71;98312.28;5127035;27;20394;-61
2022/05/26 02:44:21;;;;;;;;;;;;;;;15.62;47.99;98317.94;5153838;27;20278;-60
2022/05/26 02:46:52;;;;;;;;;;;;;;;15.68;49.63;98314.69;5167128;27;19929;-60
2022/05/26 02:49:24;;;;;;;;;;;;;;;15.69;47.92;98313.56;5141857;27;19953;-62
2022/05/26 02:51:54;;;;;;;;;;;;;;;15.57;47.85;98309.94;5157661;27;19918;-60
2022/05/26 02:54:31;;;;;;;;;;;;;;;15.64;48.19;98319.22;5152910;27;20330;-59
2022/05/26 02:57:01;;;;;;;;;;;;;;;15.62;47.64;98318.75;5159949;27;19919;-60
2022/05/26 02:59:32;;;;;;;;;;;;;;;15.58;47.75;98322.47;5159692;27;19919;-61
2022/05/26 03:02:00;;;;;;;;;;;;;;;15.67;47.63;98315.03;5168924;27;19969;-60
2022/05/26 03:04:29;;;;;;;;;;;;;;;15.71;47.88;98322.25;5152663;27;19919;-60
2022/05/26 03:06:57;;;;;;;;;;;;;;;15.67;48.42;98315.03;5144939;27;20232;-60
2022/05/26 03:09:26;;;;;;;;;;;;;;;15.67;47.65;98318.56;5159725;27;19919;-60
2022/05/26 03:11:55;;;;;;;;;;;;;;;15.59;47.89;98324.09;5160630;27;19926;-61
2022/05/26 03:14:23;;;;;;;;;;;;;;;15.76;47.64;98315.75;5160304;27;19925;-59
2022/05/26 03:16:51;;;;;;;;;;;;;;;15.60;48.22;98321.00;5153899;27;19923;-61
2022/05/26 03:19:19;;;;;;;;;;;;;;;15.76;47.74;98329.44;5157366;27;20018;-61
2022/05/26 03:21:47;;;;;;;;;;;;;;;15.54;48.53;98322.34;5162248;27;19926;-60
2022/05/26 03:24:15;;;;;;;;;;;;;;;15.44;48.42;98317.25;5156425;27;19990;-61
2022/05/26 03:26:44;;;;;;;;;;;;;;;15.56;48.13;98313.81;5136666;27;19928;-61
2022/05/26 03:29:13;;;;;;;;;;;;;;;15.39;48.92;98321.03;5159752;27;19935;-61
2022/05/26 03:31:41;;;;;;;;;;;;;;;15.38;49.11;98318.59;5144795;27;20102;-61
2022/05/26 03:42:43;;;;;;;;;;;;;;;15.44;48.88;98328.22;5163095;27;19973;-60
2022/05/26 03:45:11;;;;;;;;;;;;;;;15.43;49.32;98330.16;5150338;27;19929;-61
2022/05/26 03:47:39;;;;;;;;;;;;;;;15.49;49.03;98333.50;5149505;27;20278;-60
2022/05/26 03:50:07;;;;;;;;;;;;;;;15.37;49.35;98334.22;5156984;27;20006;-61
2022/05/26 03:52:35;;;;;;;;;;;;;;;15.47;48.83;98330.28;5156146;27;19965;-61
2022/05/26 03:55:04;;;;;;;;;;;;;;;15.29;49.18;98332.34;5160666;27;19957;-61
2022/05/26 03:57:32;;;;;;;;;;;;;;;15.25;49.15;98333.34;5149661;27;20046;-60
2022/05/26 04:00:02;;;;;;;;;;;;;;;15.29;49.32;98337.84;5147685;27;19924;-61
2022/05/26 04:02:38;;;;;;;;;;;;;;;15.27;49.26;98339.28;5139979;27;19923;-60
2022/05/26 04:05:09;;;;;;;;;;;;;;;15.19;49.64;98341.75;5135661;27;19920;-62
2022/05/26 04:07:36;;;;;;;;;;;;;;;15.19;49.63;98344.50;5134206;27;20328;-60
2022/05/26 04:10:05;;;;;;;;;;;;;;;15.33;49.30;98341.50;5138245;27;19962;-59
2022/05/26 04:13:22;;;;;;;;;;;;;;;15.21;50.01;98349.63;5147460;27;19927;-60
2022/05/26 04:15:55;;;;;;;;;;;;;;;15.32;49.71;98350.03;5149856;27;19938;-60
2022/05/26 04:18:26;;;;;;;;;;;;;;;15.18;49.94;98359.31;5158899;27;19931;-59
2022/05/26 04:21:02;;;;;;;;;;;;;;;15.23;50.19;98354.75;5144087;27;19931;-60
2022/05/26 04:23:30;;;;;;;;;;;;;;;15.35;50.05;98355.66;5151522;27;19926;-60
2022/05/26 04:26:05;;;;;;;;;;;;;;;15.44;50.57;98355.59;5156889;27;19995;-59
2022/05/26 04:28:34;;;;;;;;;;;;;;;15.46;50.10;98365.09;5143963;27;19927;-60
2022/05/26 04:31:03;;;;;;;;;;;;;;;15.43;49.93;98364.94;5140323;27;19930;-60
2022/05/26 04:33:31;;;;;;;;;;;;;;;15.47;50.26;98360.41;5142347;27;20409;-60
2022/05/26 04:36:03;;;;;;;;;;;;;;;15.43;50.29;98363.00;5144458;27;20280;-60
2022/05/26 04:38:32;;;;;;;;;;;;;;;15.42;50.01;98360.59;5156532;27;19923;-60
2022/05/26 04:41:00;;;;;;;;;;;;;;;15.49;50.11;98360.06;5163468;27;20010;-60
2022/05/26 04:43:30;;;;;;;;;;;;;;;15.61;49.85;98365.66;5146554;27;19930;-60
2022/05/26 04:45:59;;;;;;;;;;;;;;;15.49;49.98;98363.59;5147872;27;19919;-59
2022/05/26 04:48:28;;;;;;;;;;;;;;;15.53;50.34;98372.78;5140371;27;19919;-60
2022/05/26 04:50:56;;;;;;;;;;;;;;;15.62;50.66;98375.47;5154226;27;20273;-60
2022/05/26 04:53:24;;;;;;;;;;;;;;;15.83;49.37;98381.78;5139722;27;20365;-60
2022/05/26 04:55:53;;;;;;;;;;;;;;;15.80;49.38;98378.91;5153866;27;20005;-59
2022/05/26 04:58:22;;;;;;;;;;;;;;;15.93;49.50;98377.84;5152327;27;20025;-60
2022/05/26 05:00:50;;;;;;;;;;;;;;;15.96;49.16;98382.63;5137921;27;19923;-60
2022/05/26 05:03:18;;;;;;;;;;;;;;;16.03;49.23;98388.38;5154967;27;20258;-60
2022/05/26 05:05:48;;;;;;;;;;;;;;;15.85;49.65;98384.97;5152164;27;19923;-59
2022/05/26 05:08:16;;;;;;;;;;;;;;;15.85;50.50;98392.41;5160423;27;19926;-60
2022/05/26 05:10:46;;;;;;;;;;;;;;;15.85;50.51;98389.66;5149424;27;19927;-60
2022/05/26 05:13:14;;;;;;;;;;;;;;;15.96;51.08;98393.59;5154832;27;19954;-63
2022/05/26 05:15:47;;;;;;;;;;;;;;;15.96;50.51;98382.63;5133625;27;20028;-59
2022/05/26 05:18:19;;;;;;;;;;;;;;;16.03;50.83;98393.84;5166402;27;19940;-61
2022/05/26 05:20:48;;;;;;;;;;;;;;;16.03;50.50;98393.84;5150373;27;19958;-61
2022/05/26 05:23:18;;;;;;;;;;;;;;;16.17;50.69;98405.34;5149530;27;19950;-60
2022/05/26 05:25:46;;;;;;;;;;;;;;;16.10;49.92;98399.63;5154452;27;20422;-60
2022/05/26 05:28:16;;;;;;;;;;;;;;;16.17;49.72;98405.34;5156118;27;20334;-61
2022/05/26 05:30:44;;;;;;;;;;;;;;;16.22;49.05;98415.31;5131970;27;19922;-60
2022/05/26 05:33:13;;;;;;;;;;;;;;;16.15;49.72;98413.13;5158415;27;20752;-60
2022/05/26 05:35:42;;;;;;;;;;;;;;;16.21;49.73;98414.50;5154517;27;20268;-60
2022/05/26 05:38:12;;;;;;;;;;;;;;;16.19;49.28;98414.06;5164919;27;19929;-60
2022/05/26 05:40:40;;;;;;;;;;;;;;;16.22;49.91;98418.84;5152947;27;20025;-60
2022/05/26 05:43:08;;;;;;;;;;;;;;;16.33;49.39;98421.19;5137223;27;20052;-59
2022/05/26 05:45:37;;;;;;;;;;;;;;;16.49;49.48;98417.47;5158314;27;19919;-60
2022/05/26 05:48:05;;;;;;;;;;;;;;;16.70;48.88;98428.41;5148228;27;19919;-60
2022/05/26 05:50:33;;;;;;;;;;;;;;;16.61;48.80;98430.41;5149864;27;19919;-60
2022/05/26 05:53:01;;;;;;;;;;;;;;;16.67;48.58;98428.25;5166361;27;20018;-60
2022/05/26 05:55:35;;;;;;;;;;;;;;;16.81;48.96;98438.97;5162487;27;20292;-60
2022/05/26 05:58:07;;;;;;;;;;;;;;;16.74;48.36;98432.09;5154888;27;20025;-61
2022/05/26 06:00:35;;;;;;;;;;;;;;;16.77;48.76;98438.84;5139585;27;19926;-60
2022/05/26 06:03:03;;;;;;;;;;;;;;;17.02;47.96;98440.50;5155339;27;20365;-62
2022/05/26 06:05:32;;;;;;;;;;;;;;;16.76;48.45;98443.53;5158265;27;20054;-60
2022/05/26 06:08:01;;;;;;;;;;;;;;;16.63;48.84;98447.34;5155633;27;19972;-61
2022/05/26 06:10:31;;;;;;;;;;;;;;;16.72;49.67;98441.78;5165437;27;19929;-61
2022/05/26 06:12:59;;;;;;;;;;;;;;;16.88;48.48;98439.22;5147217;27;19923;-59
2022/05/26 06:15:27;;;;;;;;;;;;;;;16.91;48.37;98444.84;5156800;27;19918;-59
2022/05/26 06:17:57;;;;;;;;;;;;;;;17.08;47.86;98438.34;5155327;27;19971;-58
2022/05/26 06:20:26;;;;;;;;;;;;;;;17.22;48.77;98441.56;5159840;27;19919;-63
2022/05/26 06:22:54;;;;;;;;;;;;;;;17.32;47.42;98440.31;5134576;27;20057;-61
2022/05/26 06:25:22;;;;;;;;;;;;;;;17.32;46.26;98451.31;5146378;27;19926;-60
2022/05/26 06:30:37;;;;;;;;;;;;;;;17.40;46.19;98452.31;5140572;27;19919;-61
2022/05/26 06:39:24;;;;;;;;;;;;;;;17.29;46.43;98455.53;5043099;28;19935;-60
2022/05/26 06:42:07;;;;;;;;;;;;;;;17.48;45.69;98451.41;5139091;27;19927;-62
2022/05/26 06:44:38;;;;;;;;;;;;;;;17.42;46.02;98456.34;5149865;27;20009;-60
2022/05/26 06:47:07;;;;;;;;;;;;;;;17.50;46.25;98458.16;5146735;27;20312;-61
2022/05/26 06:49:36;;;;;;;;;;;;;;;17.63;45.77;98469.97;5136773;27;19935;-60
2022/05/26 06:52:04;;;;;;;;;;;;;;;17.65;46.31;98473.16;5165124;27;19958;-60
2022/05/26 06:54:33;;;;;;;;;;;;;;;17.83;46.13;98476.50;5150387;27;19941;-61
2022/05/26 06:57:01;;;;;;;;;;;;;;;18.02;45.12;98475.91;5151113;27;20014;-61
2022/05/26 06:59:29;;;;;;;;;;;;;;;17.88;45.12;98481.75;5162077;27;20017;-61
2022/05/26 07:01:59;;;;;;;;;;;;;;;18.03;45.03;98486.53;5149021;27;20063;-59
2022/05/26 07:04:27;;;;;;;;;;;;;;;17.95;44.83;98481.16;5157102;27;20361;-61
2022/05/26 07:06:56;;;;;;;;;;;;;;;17.97;45.02;98479.69;5157066;27;19918;-60
2022/05/26 07:09:24;;;;;;;;;;;;;;;18.20;45.23;98474.47;5165183;27;19977;-60
2022/05/26 07:11:53;;;;;;;;;;;;;;;18.33;44.32;98487.06;5158564;27;20013;-59
2022/05/26 07:14:21;;;;;;;;;;;;;;;18.51;44.05;98479.31;5157498;27;20010;-60
2022/05/26 07:16:50;;;;;;;;;;;;;;;18.44;44.02;98487.38;5152654;27;20349;-61
2022/05/26 07:19:19;;;;;;;;;;;;;;;18.53;44.00;98485.25;5147703;27;20020;-61
2022/05/26 07:21:49;;;;;;;;;;;;;;;18.66;43.23;98496.25;5145410;27;19925;-61
2022/05/26 07:24:19;;;;;;;;;;;;;;;18.71;43.56;98493.25;5146892;27;19919;-61
2022/05/26 07:26:47;;;;;;;;;;;;;;;18.67;43.90;98490.38;5152621;27;19919;-61
2022/05/26 07:29:15;;;;;;;;;;;;;;;18.68;43.36;98488.44;5156078;27;19918;-60
2022/05/26 07:31:43;;;;;;;;;;;;;;;18.69;43.85;98501.06;5146731;27;19931;-62
2022/05/26 07:34:19;;;;;;;;;;;;;;;18.55;43.94;98498.69;5155763;27;19919;-61
2022/05/26 07:42:22;;;;;;;;;;;;;;;18.22;44.43;98507.94;5158151;27;19958;-61
2022/05/26 07:47:43;;;;;;;;;;;;;;;18.19;44.78;98519.63;5157293;27;19929;-62
2022/05/26 07:50:19;;;;;;;;;;;;;;;18.10;45.61;98521.69;5153762;27;20283;-61
2022/05/26 07:52:50;;;;;;;;;;;;;;;17.95;45.68;98525.16;5153559;27;19919;-60
2022/05/26 07:55:43;;;;;;;;;;;;;;;18.23;45.55;98525.25;5157436;27;20149;-60
2022/05/26 07:58:12;;;;;;;;;;;;;;;18.27;45.08;98532.47;5163438;27;19919;-60
2022/05/26 08:00:41;;;;;;;;;;;;;;;18.23;45.25;98528.81;5127159;27;19946;-61
2022/05/26 08:03:10;;;;;;;;;;;;;;;18.31;45.44;98527.84;5125650;27;19925;-61
2022/05/26 08:05:38;;;;;;;;;;;;;;;18.31;45.00;98525.09;5123620;27;19920;-61
2022/05/26 08:08:11;;;;;;;;;;;;;;;18.52;44.68;98526.88;5118342;27;20376;-62
2022/05/26 08:10:40;;;;;;;;;;;;;;;18.65;44.43;98524.91;5123660;27;19938;-61
2022/05/26 08:13:09;;;;;;;;;;;;;;;18.80;44.44;98519.50;5124211;27;20387;-62
2022/05/26 08:15:37;;;;;;;;;;;;;;;18.91;44.09;98532.72;5117866;27;19939;-61
2022/05/26 08:18:06;;;;;;;;;;;;;;;18.73;45.44;98533.03;5111999;27;20345;-60
2022/05/26 08:21:05;;;;;;;;;;;;;;;18.92;44.51;98537.09;5120086;27;19940;-62
2022/05/26 08:23:34;;;;;;;;;;;;;;;18.55;45.05;98535.25;5119617;27;19919;-62
2022/05/26 08:26:02;;;;;;;;;;;;;;;18.59;44.68;98546.38;5122494;27;20332;-64
2022/05/26 08:28:30;;;;;;;;;;;;;;;18.36;44.90;98550.78;5122932;27;19935;-62
2022/05/26 08:30:59;;;;;;;;;;;;;;;18.20;45.51;98554.22;5118399;27;19924;-62
2022/05/26 08:33:27;;;;;;;;;;;;;;;18.18;45.42;98553.78;5117793;27;19920;-62
2022/05/26 08:36:21;;;;;;;;;;;;;;;18.31;45.62;98560.84;5117964;27;19931;-61
2022/05/26 08:38:56;;;;;;;;;;;;;;;18.16;45.34;98558.81;5114453;27;19962;-60
2022/05/26 08:41:25;;;;;;;;;;;;;;;18.15;45.88;98568.22;5125331;27;19926;-60
2022/05/26 08:43:55;;;;;;;;;;;;;;;18.30;45.39;98567.50;5122295;27;19920;-61
2022/05/26 08:46:27;;;;;;;;;;;;;;;18.39;45.50;98583.09;5124543;27;19958;-61
2022/05/26 08:49:02;;;;;;;;;;;;;;;18.31;45.93;98566.34;5122039;27;19965;-61
2022/05/26 08:51:35;;;;;;;;;;;;;;;18.42;45.84;98566.69;5123781;27;19980;-61
2022/05/26 08:54:05;;;;;;;;;;;;;;;18.56;45.96;98566.31;5126744;27;19947;-62
2022/05/26 08:56:33;;;;;;;;;;;;;;;18.62;45.61;98569.63;5126552;27;19967;-59
2022/05/26 08:59:04;;;;;;;;;;;;;;;18.73;45.10;98577.06;5112318;27;19923;-60
2022/05/26 09:01:33;;;;;;;;;;;;;;;18.82;45.34;98577.75;5136262;27;19923;-61
2022/05/26 09:04:01;;;;;;;;;;;;;;;19.02;44.59;98580.66;5126681;27;20228;-60
2022/05/26 09:06:30;;;;;;;;;;;;;;;18.92;45.10;98581.16;5137639;27;19923;-60
2022/05/26 09:14:34;;;;;;;;;;;;;;;18.94;44.43;98581.59;5125723;27;19943;-61
2022/05/26 09:17:06;;;;;;;;;;;;;;;18.68;44.83;98579.28;5142990;27;20181;-61
2022/05/26 09:20:02;;;;;;;;;;;;;;;18.81;45.18;98578.91;5128757;27;20336;-60
2022/05/26 09:22:32;;;;;;;;;;;;;;;18.93;44.89;98577.25;5127699;27;19928;-61
2022/05/26 09:25:00;;;;;;;;;;;;;;;18.99;44.44;98579.41;5145608;27;19923;-61
2022/05/26 09:27:54;;;;;;;;;;;;;;;18.95;43.91;98581.25;5133415;27;19920;-62
2022/05/26 09:30:24;;;;;;;;;;;;;;;18.88;43.83;98581.03;5124675;27;19920;-60
2022/05/26 09:32:53;;;;;;;;;;;;;;;18.81;44.36;98583.59;5136390;27;20021;-61
2022/05/26 09:35:25;;;;;;;;;;;;;;;19.01;44.01;98587.28;5126077;27;19999;-61
2022/05/26 09:37:54;;;;;;;;;;;;;;;18.87;44.45;98586.91;5136479;27;19927;-60
2022/05/26 09:40:28;;;;;;;;;;;;;;;18.66;44.72;98596.13;5126589;27;19920;-60
2022/05/26 09:43:02;;;;;;;;;;;;;;;18.57;45.05;98592.69;5135186;27;20105;-60
2022/05/26 09:45:37;;;;;;;;;;;;;;;18.55;45.15;98587.53;5145964;27;19927;-59
2022/05/26 09:48:24;;;;;;;;;;;;;;;18.50;45.57;98596.03;5146483;27;19919;-59
2022/05/26 09:50:53;;;;;;;;;;;;;;;18.46;46.01;98599.81;5137619;27;19935;-58
2022/05/26 09:53:28;;;;;;;;;;;;;;;18.56;45.54;98596.59;5135100;27;19920;-60
2022/05/26 09:55:56;;;;;;;;;;;;;;;18.67;45.51;98611.47;5138931;27;19995;-61
2022/05/26 09:58:28;;;;;;;;;;;;;;;18.52;45.29;98603.94;5149432;27;20240;-60
2022/05/26 10:01:33;;;;;;;;;;;;;;;18.70;44.81;98605.31;5159610;27;19925;-58
2022/05/26 10:04:03;;;;;;;;;;;;;;;18.86;44.15;98607.34;5164761;27;20216;-61
2022/05/26 10:06:33;;;;;;;;;;;;;;;18.98;43.47;98602.59;5163667;27;19940;-60
2022/05/26 10:09:04;;;;;;;;;;;;;;;19.10;43.29;98596.22;5160394;27;19919;-61
2022/05/26 10:11:37;;;;;;;;;;;;;;;19.47;42.96;98596.03;5160255;27;20370;-61
2022/05/26 10:14:08;;;;;;;;;;;;;;;19.59;43.64;98601.50;5141003;27;19918;-59
2022/05/26 10:16:39;;;;;;;;;;;;;;;19.81;42.57;98602.84;5138877;27;19923;-60
2022/05/26 10:19:11;;;;;;;;;;;;;;;19.80;41.31;98596.53;5136928;27;19958;-60
2022/05/26 10:21:44;;;;;;;;;;;;;;;19.79;41.91;98605.16;5158646;27;19954;-61
2022/05/26 10:24:20;;;;;;;;;;;;;;;19.73;41.81;98607.38;5149120;27;21028;-60
2022/05/26 10:26:49;;;;;;;;;;;;;;;19.54;41.02;98604.47;5151659;27;19922;-61
2022/05/26 10:29:21;;;;;;;;;;;;;;;19.50;41.40;98603.59;5160067;27;19926;-59
2022/05/26 10:32:18;;;;;;;;;;;;;;;19.37;41.45;98602.84;5147528;27;19941;-61
2022/05/26 10:35:00;;;;;;;;;;;;;;;19.43;41.46;98606.97;5144404;27;19938;-60
2022/05/26 10:37:32;;;;;;;;;;;;;;;19.39;41.53;98597.81;5155433;27;19955;-61
2022/05/26 10:40:05;;;;;;;;;;;;;;;19.44;41.88;98596.72;5147241;27;19999;-61
2022/05/26 10:42:34;;;;;;;;;;;;;;;19.37;41.83;98589.88;5164769;27;19942;-59
2022/05/26 10:45:07;;;;;;;;;;;;;;;19.36;41.56;98593.00;5161950;27;19918;-60
2022/05/26 10:47:37;;;;;;;;;;;;;;;19.46;41.33;98591.69;5158094;27;20258;-61
2022/05/26 10:50:06;;;;;;;;;;;;;;;19.41;41.64;98589.19;5145985;27;19918;-61
2022/05/26 10:52:36;;;;;;;;;;;;;;;19.52;41.76;98584.75;5153885;27;19986;-62
2022/05/26 10:55:08;;;;;;;;;;;;;;;19.52;42.20;98602.09;5152015;27;19923;-61
2022/05/26 10:57:39;;;;;;;;;;;;;;;19.42;42.23;98588.03;5123512;27;19931;-60
2022/05/26 11:00:08;;;;;;;;;;;;;;;19.31;42.42;98591.28;5160875;27;19919;-61
2022/05/26 11:02:46;;;;;;;;;;;;;;;19.42;42.40;98591.59;5142284;27;19942;-59
2022/05/26 11:05:17;;;;;;;;;;;;;;;19.50;42.44;98598.09;5143878;27;20286;-60
2022/05/26 11:07:47;;;;;;;;;;;;;;;19.35;42.09;98602.41;5149590;27;20010;-61
2022/05/26 11:10:17;;;;;;;;;;;;;;;19.22;42.49;98598.91;5165400;27;19918;-62
2022/05/26 11:12:47;;;;;;;;;;;;;;;19.08;42.61;98606.78;5171523;27;19926;-61
2022/05/26 11:18:03;;;;;;;;;;;;;;;18.86;43.01;98612.84;5165162;27;20327;-62
2022/05/26 11:20:58;;;;;;;;;;;;;;;18.75;43.26;98612.50;5161490;27;20339;-61
2022/05/26 11:23:27;;;;;;;;;;;;;;;18.70;43.67;98616.31;5153880;27;20278;-61
2022/05/26 11:25:56;;;;;;;;;;;;;;;18.96;43.13;98617.84;5160402;27;19922;-61
2022/05/26 11:28:27;;;;;;;;;;;;;;;18.87;42.95;98626.25;5159004;27;20155;-61
2022/05/26 11:36:57;;;;;;;;;;;;;;;18.88;43.43;98616.03;5155643;27;19987;-62
2022/05/26 11:39:28;;;;;;;;;;;;;;;18.97;43.62;98622.22;5142083;27;20372;-61
2022/05/26 11:41:57;;;;;;;;;;;;;;;18.98;43.86;98612.78;5132764;27;20266;-63
2022/05/26 11:44:34;;;;;;;;;;;;;;;18.95;43.93;98616.25;5158575;27;19927;-62
2022/05/26 11:47:23;;;;;;;;;;;;;;;19.02;43.45;98610.94;5162872;27;20017;-58
2022/05/26 11:50:04;;;;;;;;;;;;;;;18.92;43.10;98614.19;5144437;27;19919;-61
2022/05/26 11:53:03;;;;;;;;;;;;;;;19.30;42.99;98603.47;5160286;27;20397;-62
2022/05/26 11:55:47;;;;;;;;;;;;;;;19.22;43.57;98609.94;5109866;27;19965;-61
2022/05/26 11:58:19;;;;;;;;;;;;;;;19.29;43.04;98599.13;5148193;27;19926;-61
2022/05/26 12:00:49;;;;;;;;;;;;;;;19.14;43.14;98588.88;5148401;27;19925;-61
2022/05/26 12:03:28;;;;;;;;;;;;;;;19.17;43.07;98599.16;5144997;27;19926;-60
2022/05/26 12:05:58;;;;;;;;;;;;;;;19.37;42.81;98597.34;5153743;27;19919;-60
2022/05/26 12:08:30;;;;;;;;;;;;;;;19.13;43.16;98594.72;5148925;27;19923;-61
2022/05/26 12:10:59;;;;;;;;;;;;;;;19.13;43.03;98600.25;5165918;27;19926;-61
2022/05/26 12:13:28;;;;;;;;;;;;;;;19.13;42.85;98595.53;5150474;27;19999;-61
2022/05/26 12:16:27;;;;;;;;;;;;;;;19.20;42.42;98595.72;5156582;27;19983;-62
2022/05/26 12:19:02;;;;;;;;;;;;;;;18.96;43.04;98601.31;5146566;27;19927;-62
2022/05/26 12:21:42;;;;;;;;;;;;;;;19.01;43.63;98599.09;5159299;27;19923;-62
2022/05/26 12:24:35;;;;;;;;;;;;;;;18.81;43.34;98609.19;5158123;27;19922;-62
2022/05/26 12:27:05;;;;;;;;;;;;;;;18.93;43.42;98596.53;5159615;27;19922;-62
2022/05/26 12:30:01;;;;;;;;;;;;;;;19.04;43.13;98594.88;5142740;27;19919;-62
2022/05/26 12:32:30;;;;;;;;;;;;;;;18.91;43.62;98598.81;5127311;27;20384;-61
2022/05/26 12:35:00;;;;;;;;;;;;;;;18.93;43.79;98597.31;5149759;27;19926;-62
2022/05/26 12:37:34;;;;;;;;;;;;;;;18.82;44.20;98602.53;5155940;27;19925;-62
2022/05/26 12:40:12;;;;;;;;;;;;;;;18.58;44.76;98600.59;5147256;27;19919;-62
2022/05/26 12:42:59;;;;;;;;;;;;;;;18.60;44.97;98597.50;5163431;27;19962;-62
2022/05/26 12:45:42;;;;;;;;;;;;;;;18.61;45.32;98590.84;5156943;27;20366;-62
2022/05/26 12:48:26;;;;;;;;;;;;;;;18.64;45.24;98594.84;5167189;27;19922;-63
2022/05/26 12:50:54;;;;;;;;;;;;;;;18.70;45.29;98588.81;5143702;27;19971;-62
2022/05/26 12:53:26;;;;;;;;;;;;;;;18.94;44.76;98587.09;5159221;27;20282;-62
2022/05/26 12:55:56;;;;;;;;;;;;;;;18.95;44.25;98589.50;5158722;27;19922;-61
2022/05/26 12:58:26;;;;;;;;;;;;;;;19.11;44.39;98581.28;5153833;27;20152;-62
2022/05/26 13:00:59;;;;;;;;;;;;;;;19.41;44.34;98589.19;5155383;27;20025;-61
2022/05/26 13:03:29;;;;;;;;;;;;;;;19.26;44.07;98588.78;5153207;27;19930;-60
2022/05/26 13:05:59;;;;;;;;;;;;;;;19.28;44.05;98581.00;5145954;27;19923;-61
2022/05/26 13:08:29;;;;;;;;;;;;;;;19.16;44.28;98594.81;5157705;27;19924;-62
2022/05/26 13:10:58;;;;;;;;;;;;;;;19.13;44.63;98589.22;5160612;27;20013;-62
2022/05/26 13:13:32;;;;;;;;;;;;;;;19.30;44.61;98586.94;5155293;27;20021;-62
2022/05/26 13:16:15;;;;;;;;;;;;;;;19.09;44.92;98584.41;5146003;27;19923;-62
2022/05/26 13:18:43;;;;;;;;;;;;;;;19.14;44.62;98602.63;5158248;27;20006;-62
2022/05/26 13:21:15;;;;;;;;;;;;;;;18.87;45.11;98590.47;5152942;27;20101;-61
2022/05/26 13:23:44;;;;;;;;;;;;;;;19.03;44.79;98585.00;5138222;27;19932;-62
2022/05/26 13:26:16;;;;;;;;;;;;;;;19.05;44.86;98588.22;5160956;27;20202;-62
2022/05/26 13:28:46;;;;;;;;;;;;;;;18.93;44.60;98583.56;5144478;27;19919;-62
2022/05/26 13:34:11;;;;;;;;;;;;;;;19.17;44.24;98590.09;5153478;27;20319;-60
2022/05/26 13:36:44;;;;;;;;;;;;;;;19.26;43.60;98582.50;5153579;27;19927;-60
2022/05/26 13:39:14;;;;;;;;;;;;;;;19.24;44.37;98573.78;5143192;27;20313;-60
2022/05/26 13:41:43;;;;;;;;;;;;;;;19.16;44.62;98572.78;5164154;27;20537;-60
2022/05/26 13:44:13;;;;;;;;;;;;;;;19.18;44.74;98576.00;5173018;27;20350;-61
2022/05/26 13:46:43;;;;;;;;;;;;;;;19.06;45.06;98570.53;5144906;27;19948;-61
2022/05/26 13:52:20;;;;;;;;;;;;;;;18.97;44.94;98575.41;5156798;27;19923;-62
2022/05/26 13:54:53;;;;;;;;;;;;;;;18.86;44.92;98572.34;5158159;27;19965;-60
2022/05/26 13:57:22;;;;;;;;;;;;;;;18.74;45.20;98567.66;5155499;27;19971;-61
2022/05/26 13:59:52;;;;;;;;;;;;;;;19.07;44.74;98566.66;5149816;27;19987;-61
2022/05/26 14:02:21;;;;;;;;;;;;;;;19.15;43.95;98575.88;5168385;27;20358;-60